Time;durP1;ratioP1;P1;durP2;ratioP2;P2;SDS_P1;SDS_P2;PMS_P1;PMS_P2;Temp;Humidity;BMP_temperature;BMP_pressure;BME280_temperature;BME280_humidity;BME280_pressure;Samples;Min_cycle;Max_cycle;Signal;HPM_P1;HPM_P2
2023/01/11 00:02:00;;;;;;;;;1.50;0.00;;;;;13.05;87.42;100985.53;4976654;28;60398;-80
2023/01/11 00:04:29;;;;;;;;;0.00;0.00;;;;;13.08;87.32;100981.97;5009926;28;45464;-80
2023/01/11 00:06:55;;;;;;;;;0.00;0.00;;;;;13.09;87.32;100984.56;4978571;28;45848;-81
2023/01/11 00:09:20;;;;;;;;;0.00;0.00;;;;;13.10;87.06;100986.25;4978537;28;45366;-81
2023/01/11 00:11:45;;;;;;;;;0.00;0.00;;;;;13.13;87.70;100973.06;5010040;28;45432;-81
2023/01/11 00:14:11;;;;;;;;;0.00;0.00;;;;;13.13;87.16;100975.69;4977624;28;65132;-81
2023/01/11 00:16:36;;;;;;;;;0.00;0.00;;;;;13.12;87.28;100976.56;4978492;28;45404;-82
2023/01/11 00:19:02;;;;;;;;;0.00;0.00;;;;;13.12;87.31;100973.97;4977834;28;54336;-80
2023/01/11 00:21:27;;;;;;;;;0.75;0.00;;;;;13.13;87.36;100977.41;4978494;28;45375;-80
2023/01/11 00:23:52;;;;;;;;;0.00;0.00;;;;;13.13;87.56;100969.59;4977751;28;51561;-80
2023/01/11 00:26:18;;;;;;;;;0.00;0.00;;;;;13.14;87.71;100964.31;4976115;28;65045;-80
2023/01/11 00:28:43;;;;;;;;;0.50;0.00;;;;;13.12;87.49;100966.13;5009915;28;45539;-80
2023/01/11 00:31:08;;;;;;;;;0.00;0.00;;;;;13.11;87.30;100951.38;4976939;28;45370;-81
2023/01/11 00:33:34;;;;;;;;;0.00;0.00;;;;;13.10;87.47;100964.47;5009591;28;47009;-80
2023/01/11 00:35:59;;;;;;;;;1.25;0.00;;;;;13.10;87.75;100952.25;5008984;28;68596;-81
2023/01/11 00:38:43;;;;;;;;;0.00;0.00;;;;;13.12;87.66;100949.59;4977960;28;45388;-81
2023/01/11 00:49:22;;;;;;;;;1.00;0.00;;;;;13.03;88.36;100936.88;4958558;28;45382;-81
2023/01/11 00:51:48;;;;;;;;;0.00;0.00;;;;;13.01;88.01;100938.69;4958418;28;45552;-81
2023/01/11 00:54:13;;;;;;;;;0.00;0.00;;;;;12.98;88.40;100932.66;4973055;28;47292;-81
2023/01/11 00:56:39;;;;;;;;;0.50;0.00;;;;;12.97;88.76;100928.31;4958121;28;45315;-80
2023/01/11 00:59:05;;;;;;;;;0.25;0.00;;;;;12.95;88.89;100922.31;4958392;28;45391;-80
2023/01/11 01:01:31;;;;;;;;;0.75;0.00;;;;;12.94;89.03;100920.59;4972448;28;65999;-82
2023/01/11 01:03:56;;;;;;;;;0.00;0.00;;;;;12.93;88.98;100925.91;4957744;28;46176;-81
2023/01/11 01:06:21;;;;;;;;;0.00;0.00;;;;;12.93;89.00;100931.13;4972419;28;63359;-81
2023/01/11 01:08:47;;;;;;;;;0.00;0.00;;;;;12.94;89.07;100917.97;4958056;28;45338;-82
2023/01/11 01:11:12;;;;;;;;;0.75;0.00;;;;;12.96;89.40;100928.38;4972897;28;45711;-81
2023/01/11 01:16:21;;;;;;;;;0.75;0.00;;;;;12.96;88.95;100928.38;4957877;28;45311;-81
2023/01/11 01:18:47;;;;;;;;;0.00;0.00;;;;;12.96;88.95;100915.31;4957379;28;62442;-80
2023/01/11 01:21:12;;;;;;;;;0.75;0.00;;;;;12.98;89.24;100910.88;4956658;28;45354;-80
2023/01/11 01:23:38;;;;;;;;;0.00;0.00;;;;;13.01;88.95;100912.56;4957620;28;46196;-80
2023/01/11 01:26:04;;;;;;;;;0.00;0.00;;;;;13.01;88.71;100915.16;4956662;28;66230;-80
2023/01/11 01:28:29;;;;;;;;;0.00;0.00;;;;;13.01;88.83;100902.09;4957757;28;45289;-81
2023/01/11 01:30:55;;;;;;;;;0.00;0.00;;;;;13.02;88.81;100890.72;4957048;28;66109;-81
2023/01/11 01:33:20;;;;;;;;;1.00;0.00;;;;;13.03;88.59;100895.06;4972577;28;46322;-82
2023/01/11 01:35:46;;;;;;;;;0.50;0.00;;;;;13.04;88.90;100894.13;4971759;28;67194;-82
2023/01/11 01:38:11;;;;;;;;;0.00;0.00;;;;;13.04;88.84;100892.38;4970401;28;45301;-81
2023/01/11 01:40:45;;;;;;;;;0.00;0.00;;;;;13.05;88.52;100903.69;4976764;28;56953;-80
2023/01/11 01:43:11;;;;;;;;;0.00;0.00;;;;;13.05;88.90;100903.69;4976933;28;45475;-81
2023/01/11 01:45:37;;;;;;;;;0.00;0.00;;;;;13.04;89.05;100896.75;4975737;28;45451;-81
2023/01/11 01:48:05;;;;;;;;;0.00;0.00;;;;;13.02;89.02;100883.75;4976266;28;60263;-81
2023/01/11 01:50:36;;;;;;;;;0.00;0.00;;;;;13.01;89.18;100889.03;4977209;28;45432;-81
2023/01/11 01:53:09;;;;;;;;;0.00;0.00;;;;;13.01;89.08;100889.03;5008059;28;45415;-82
2023/01/11 01:55:38;;;;;;;;;0.00;0.00;;;;;13.00;89.51;100887.31;4976899;28;45608;-82
2023/01/11 01:58:08;;;;;;;;;0.00;0.00;;;;;13.00;89.32;100896.03;5008503;28;45321;-81
2023/01/11 02:00:33;;;;;;;;;0.00;0.00;;;;;13.00;89.11;100898.63;5008665;28;45334;-81
2023/01/11 02:03:00;;;;;;;;;0.00;0.00;;;;;13.01;89.25;100902.94;4976412;28;45851;-81
2023/01/11 02:05:25;;;;;;;;;0.00;0.00;;;;;13.02;89.21;100901.16;5007761;28;55318;-81
2023/01/11 02:07:53;;;;;;;;;1.00;0.00;;;;;13.02;89.47;100909.88;5008084;28;45287;-82
2023/01/11 02:10:20;;;;;;;;;0.00;0.00;;;;;13.06;88.94;100901.03;5007732;28;45492;-81
2023/01/11 02:12:50;;;;;;;;;0.00;0.00;;;;;13.08;89.06;100907.03;4976601;28;45730;-81
2023/01/11 02:15:18;;;;;;;;;0.00;0.00;;;;;13.10;89.21;100901.75;4975202;28;45502;-81
2023/01/11 02:17:43;;;;;;;;;0.00;0.00;;;;;13.12;89.05;100911.25;4976826;28;45446;-81
2023/01/11 02:20:29;;;;;;;;;1.00;0.00;;;;;13.14;88.75;100909.41;4976541;28;45361;-81
2023/01/11 02:23:23;;;;;;;;;1.00;0.00;;;;;13.16;88.93;100904.13;5007625;28;47134;-81
2023/01/11 02:26:17;;;;;;;;;0.00;0.00;;;;;13.16;89.05;100902.38;4976390;28;45640;-81
2023/01/11 02:28:45;;;;;;;;;0.00;0.00;;;;;13.15;89.40;100889.38;4976538;28;45402;-81
2023/01/11 02:31:28;;;;;;;;;0.00;0.00;;;;;13.13;89.64;100893.78;4976453;28;45537;-81
2023/01/11 02:34:15;;;;;;;;;0.00;0.00;;;;;13.12;89.37;100887.72;5007820;28;47032;-82
2023/01/11 02:37:11;;;;;;;;;0.00;0.00;;;;;13.10;89.71;100888.69;4975854;28;45369;-81
2023/01/11 02:40:07;;;;;;;;;0.00;0.00;;;;;13.05;90.07;100874.94;4967963;28;45410;-81
2023/01/11 02:45:58;;;;;;;;;0.00;0.00;;;;;13.02;90.08;100898.56;4976044;28;45295;-81
2023/01/11 02:48:45;;;;;;;;;0.00;0.00;;;;;13.01;90.47;100891.66;4976264;28;45314;-81
2023/01/11 02:51:16;;;;;;;;;0.00;0.00;;;;;12.99;90.75;100899.53;4979456;28;45186;-81
2023/01/11 02:53:48;;;;;;;;;0.00;0.00;;;;;12.98;90.66;100895.19;4979907;28;45452;-82
2023/01/11 02:56:19;;;;;;;;;0.00;0.00;;;;;12.98;90.66;100889.97;4978192;28;46521;-81
2023/01/11 02:58:47;;;;;;;;;0.00;0.00;;;;;13.00;90.61;100889.94;5011217;28;45528;-81
2023/01/11 03:01:12;;;;;;;;;0.00;0.00;;;;;13.02;90.41;100885.50;5011369;28;45273;-81
2023/01/11 03:03:38;;;;;;;;;1.00;0.00;;;;;13.03;90.71;100882.81;5010956;28;45260;-81
2023/01/11 03:06:13;;;;;;;;;0.00;0.00;;;;;13.04;90.26;100886.28;5009836;28;69315;-81
2023/01/11 03:09:08;;;;;;;;;0.00;0.00;;;;;13.04;90.46;100871.47;5011200;28;45390;-81
2023/01/11 03:15:02;;;;;;;;;0.00;0.00;;;;;13.04;90.51;100873.22;4979364;28;45409;-82
2023/01/11 03:17:48;;;;;;;;;0.00;0.00;;;;;13.04;90.46;100871.47;4979175;28;46241;-80
2023/01/11 03:20:23;;;;;;;;;0.00;0.00;;;;;13.05;90.79;100880.16;4978868;28;45784;-81
2023/01/11 03:22:54;;;;;;;;;0.00;0.00;;;;;13.06;90.68;100876.66;4977999;28;45424;-80
2023/01/11 03:25:25;;;;;;;;;0.00;0.00;;;;;13.09;90.58;100874.78;4979350;28;45396;-81
2023/01/11 03:27:55;;;;;;;;;0.00;0.00;;;;;13.10;90.47;100891.31;5010673;28;47458;-81
2023/01/11 03:30:57;;;;;;;;;0.00;0.00;;;;;13.12;90.28;100879.03;5010866;28;45477;-81
2023/01/11 03:33:40;;;;;;;;;0.00;0.00;;;;;13.12;90.51;100882.50;4976802;28;45572;-81
2023/01/11 03:36:13;;;;;;;;;0.00;0.00;;;;;13.12;90.40;100889.50;4976385;28;45503;-81
2023/01/11 03:38:44;;;;;;;;;0.00;0.00;;;;;13.10;90.51;100883.47;4960301;28;46506;-82
2023/01/11 03:41:15;;;;;;;;;0.00;0.00;;;;;13.09;90.97;100882.63;4976528;28;45624;-82
2023/01/11 03:43:43;;;;;;;;;0.00;0.00;;;;;13.08;90.65;100886.13;4960243;28;45704;-81
2023/01/11 03:46:09;;;;;;;;;0.00;0.00;;;;;13.09;90.96;100892.19;4960285;28;45579;-81
2023/01/11 03:48:54;;;;;;;;;0.00;0.00;;;;;13.09;92.05;100885.25;4960092;28;47042;-81
2023/01/11 03:51:27;;;;;;;;;0.00;0.00;;;;;13.06;91.59;100877.50;4960339;28;45339;-81
2023/01/11 03:53:58;;;;;;;;;0.00;0.00;;;;;13.02;92.09;100888.09;4976475;28;45442;-81
2023/01/11 03:56:29;;;;;;;;;0.00;0.00;;;;;12.98;91.92;100887.38;4976479;28;45431;-80
2023/01/11 03:58:54;;;;;;;;;0.00;0.00;;;;;12.94;92.36;100885.78;4975827;28;48281;-81
2023/01/11 04:01:19;;;;;;;;;0.00;0.00;;;;;12.93;92.90;100895.38;4958588;28;62410;-81
2023/01/11 04:03:45;;;;;;;;;0.00;0.00;;;;;12.88;93.28;100894.69;4974981;28;64348;-79
2023/01/11 04:06:11;;;;;;;;;0.00;0.00;;;;;12.83;93.16;100904.44;4959387;28;63481;-79
2023/01/11 04:08:36;;;;;;;;;0.00;0.00;;;;;12.78;93.86;100885.50;4964689;28;46521;-79
2023/01/11 04:11:04;;;;;;;;;0.00;0.00;;;;;12.75;93.73;100896.88;4977625;28;67702;-78
2023/01/11 04:13:31;;;;;;;;;0.00;0.00;;;;;12.73;94.20;100893.47;4978603;28;45327;-79
2023/01/11 04:15:56;;;;;;;;;0.00;0.00;;;;;12.70;94.48;100896.22;4977117;28;45489;-79
2023/01/11 04:18:21;;;;;;;;;0.00;0.00;;;;;12.69;94.60;100894.50;4977882;28;46252;-79
2023/01/11 04:20:47;;;;;;;;;2.50;0.00;;;;;12.71;94.87;100886.63;4978274;28;45203;-79
2023/01/11 04:23:13;;;;;;;;;0.00;0.00;;;;;12.70;94.68;100883.16;4977083;28;45300;-79
2023/01/11 04:25:39;;;;;;;;;0.00;0.00;;;;;12.68;94.83;100898.00;4978393;28;45587;-80
2023/01/11 04:28:04;;;;;;;;;0.00;0.00;;;;;12.67;94.82;100887.63;4977605;28;61131;-80
2023/01/11 04:30:30;;;;;;;;;0.00;0.00;;;;;12.65;94.65;100889.44;4978267;28;45397;-80
2023/01/11 04:32:58;;;;;;;;;0.00;0.00;;;;;12.64;94.95;100914.69;4977166;28;60181;-79
2023/01/11 04:35:24;;;;;;;;;0.00;0.00;;;;;12.62;94.94;100921.72;4978086;28;45555;-79
2023/01/11 04:37:54;;;;;;;;;0.00;0.00;;;;;12.64;95.28;100958.25;4992917;28;46918;-82
2023/01/11 04:40:19;;;;;;;;;0.00;0.00;;;;;12.57;97.44;100978.47;4976748;28;45744;-82
2023/01/11 04:42:45;;;;;;;;;0.00;0.00;;;;;12.41;97.87;100970.31;4977847;28;45363;-81
2023/01/11 04:45:10;;;;;;;;;0.00;0.00;;;;;12.23;98.69;100981.34;5009679;28;45528;-80
2023/01/11 04:47:36;;;;;;;;;0.00;0.00;;;;;11.99;98.20;100974.22;4976961;28;58627;-80
2023/01/11 04:50:01;;;;;;;;;0.75;0.00;;;;;11.86;99.48;100972.88;4977064;28;64483;-80
2023/01/11 04:52:26;;;;;;;;;0.00;0.00;;;;;11.78;100.00;100970.50;4977238;28;62692;-80
2023/01/11 04:54:52;;;;;;;;;0.00;0.00;;;;;11.75;100.00;100974.94;4977535;28;46932;-80
2023/01/11 04:57:18;;;;;;;;;0.00;0.00;;;;;11.74;100.00;100984.53;4977724;28;46038;-80
2023/01/11 04:59:46;;;;;;;;;0.00;0.00;;;;;11.74;100.00;100979.31;4977671;28;45374;-79
2023/01/11 05:02:12;;;;;;;;;1.00;0.00;;;;;11.73;100.00;100979.38;4977417;28;45291;-80
2023/01/11 05:04:38;;;;;;;;;1.00;0.00;;;;;11.73;100.00;101002.84;4977581;28;45216;-80
2023/01/11 05:07:04;;;;;;;;;0.00;0.00;;;;;11.71;100.00;101007.25;4977400;28;45327;-80
2023/01/11 05:09:30;;;;;;;;;4.25;2.75;;;;;11.69;100.00;101017.72;4977474;28;45765;-79
2023/01/11 05:11:57;;;;;;;;;0.00;0.00;;;;;11.68;100.00;101016.03;4976715;28;54006;-79
2023/01/11 05:14:22;;;;;;;;;1.00;1.00;;;;;11.68;100.00;101017.75;4977523;28;45518;-80
2023/01/11 05:16:47;;;;;;;;;6.00;3.25;;;;;11.67;100.00;101021.28;4976923;28;46386;-81
2023/01/11 05:19:13;;;;;;;;;12.00;10.75;;;;;11.67;100.00;101023.88;4977278;28;45448;-79
2023/01/11 05:21:40;;;;;;;;;8.00;6.00;;;;;11.62;100.00;101026.59;4976642;28;59412;-80
2023/01/11 05:24:07;;;;;;;;;12.75;10.25;;;;;11.56;100.00;101034.63;4977320;28;45373;-80
2023/01/11 05:26:35;;;;;;;;;2.25;2.25;;;;;11.47;100.00;101030.50;5008953;28;46302;-83
2023/01/11 05:29:03;;;;;;;;;15.00;9.00;;;;;11.37;100.00;101036.88;4977124;28;45616;-81
2023/01/11 05:31:30;;;;;;;;;13.00;13.00;;;;;11.32;100.00;101049.19;4976766;28;45461;-80
2023/01/11 05:33:57;;;;;;;;;14.50;12.00;;;;;11.31;100.00;101053.53;4975922;28;45260;-80
2023/01/11 05:36:24;;;;;;;;;21.25;15.25;;;;;11.35;100.00;101054.31;4977028;28;46375;-80
2023/01/11 05:38:50;;;;;;;;;26.25;22.50;;;;;11.33;100.00;101061.28;4976865;28;45392;-80
2023/01/11 05:41:17;;;;;;;;;2.00;2.00;;;;;11.30;100.00;101064.84;4977236;28;45425;-80
2023/01/11 05:46:28;;;;;;;;;1.75;1.00;;;;;11.23;100.00;101085.00;4976512;28;45727;-79
2023/01/11 05:48:55;;;;;;;;;6.75;1.25;;;;;11.24;100.00;101085.88;4976028;28;66164;-80
2023/01/11 05:51:21;;;;;;;;;0.25;0.25;;;;;11.24;100.00;101078.06;4977130;28;45310;-79
2023/01/11 05:53:46;;;;;;;;;0.50;0.00;;;;;11.24;100.00;101078.91;4992047;28;45593;-79
2023/01/11 05:56:12;;;;;;;;;0.25;0.00;;;;;11.26;100.00;101078.03;4976683;28;47183;-79
2023/01/11 05:58:37;;;;;;;;;1.00;1.00;;;;;11.25;100.00;101087.56;4976596;28;47921;-80
2023/01/11 06:01:03;;;;;;;;;0.00;0.00;;;;;11.21;100.00;101107.63;5007279;28;64471;-79
2023/01/11 06:03:28;;;;;;;;;0.75;0.00;;;;;11.18;100.00;101101.63;4976499;28;45365;-79
2023/01/11 06:05:53;;;;;;;;;0.00;0.00;;;;;11.15;100.00;101096.53;5008318;28;45950;-80
2023/01/11 06:08:19;;;;;;;;;0.00;0.00;;;;;11.11;100.00;101103.56;4976710;28;45481;-79
2023/01/11 06:10:52;;;;;;;;;0.00;0.00;;;;;11.07;100.00;101101.06;4975955;28;63184;-80
2023/01/11 06:13:26;;;;;;;;;0.00;0.00;;;;;10.98;100.00;101105.63;4977079;28;45235;-80
2023/01/11 06:16:03;;;;;;;;;0.00;0.00;;;;;10.95;100.00;101102.22;5005661;28;45970;-80
2023/01/11 06:18:34;;;;;;;;;2.00;0.25;;;;;10.94;100.00;101106.59;4976529;28;45355;-80
2023/01/11 06:21:00;;;;;;;;;1.00;0.00;;;;;10.90;100.00;101114.50;4976791;28;45352;-80
2023/01/11 06:23:26;;;;;;;;;0.75;0.75;;;;;10.87;100.00;101119.81;5007237;28;45485;-79
2023/01/11 06:25:51;;;;;;;;;0.00;0.00;;;;;10.88;100.00;101124.09;4976442;28;46624;-80
2023/01/11 06:28:16;;;;;;;;;0.00;0.00;;;;;10.87;100.00;101130.22;4976050;28;45317;-80
2023/01/11 06:30:42;;;;;;;;;0.00;0.00;;;;;10.87;100.00;101133.69;4976465;28;45239;-80
2023/01/11 06:33:07;;;;;;;;;1.75;0.00;;;;;10.84;100.00;101133.75;4976079;28;53460;-80
2023/01/11 06:35:40;;;;;;;;;0.00;0.00;;;;;10.85;100.00;101132.84;4976050;28;46128;-79
2023/01/11 06:38:08;;;;;;;;;0.00;0.00;;;;;10.81;100.00;101144.25;4976179;28;45448;-81
2023/01/11 06:40:34;;;;;;;;;0.00;0.00;;;;;10.80;100.00;101152.94;4975158;28;45334;-81
2023/01/11 06:43:00;;;;;;;;;1.00;0.00;;;;;10.79;100.00;101164.22;4974606;28;45407;-81
2023/01/11 06:45:25;;;;;;;;;3.50;1.00;;;;;10.82;100.00;101166.78;4975333;28;71935;-81
2023/01/11 06:47:50;;;;;;;;;1.75;0.00;;;;;10.84;100.00;101172.81;5007364;28;56551;-80
2023/01/11 06:50:16;;;;;;;;;0.50;0.50;;;;;10.85;100.00;101177.13;4975467;28;64269;-81
2023/01/11 06:52:41;;;;;;;;;2.75;1.00;;;;;10.82;100.00;101175.44;4975018;28;45456;-82
2023/01/11 06:55:07;;;;;;;;;1.00;0.00;;;;;10.84;100.00;101186.66;5007859;28;45569;-81
2023/01/11 06:57:32;;;;;;;;;1.25;0.75;;;;;10.88;100.00;101187.47;4974455;28;45350;-81
2023/01/11 06:59:58;;;;;;;;;1.00;1.00;;;;;10.90;100.00;101185.69;5007886;28;45479;-81
2023/01/11 07:02:23;;;;;;;;;2.00;0.75;;;;;10.92;100.00;101183.03;4974727;28;45414;-81
2023/01/11 07:04:49;;;;;;;;;1.75;1.00;;;;;10.90;100.00;101177.88;4975070;28;70195;-81
2023/01/11 07:07:14;;;;;;;;;4.00;1.00;;;;;10.88;100.00;101178.78;4975328;28;62540;-81
2023/01/11 07:09:39;;;;;;;;;2.25;0.00;;;;;10.84;100.00;101188.44;4976106;28;45401;-80
2023/01/11 07:12:05;;;;;;;;;1.00;0.00;;;;;10.82;100.00;101185.84;4975587;28;45467;-80
2023/01/11 07:14:30;;;;;;;;;1.25;1.00;;;;;10.79;100.00;101191.16;4990155;28;62283;-81
2023/01/11 07:16:55;;;;;;;;;0.00;0.00;;;;;10.76;100.00;101198.16;5006768;28;68019;-81
2023/01/11 07:19:21;;;;;;;;;1.00;1.00;;;;;10.77;100.00;101192.06;4975270;28;60423;-81
2023/01/11 07:21:46;;;;;;;;;0.00;0.00;;;;;10.76;100.00;101196.41;4975104;28;64205;-82
2023/01/11 07:24:16;;;;;;;;;0.50;0.50;;;;;10.75;100.00;101191.25;4974844;28;66904;-81
2023/01/11 07:26:42;;;;;;;;;2.00;0.50;;;;;10.71;100.00;101193.06;4975302;28;45662;-81
2023/01/11 07:29:07;;;;;;;;;1.00;0.00;;;;;10.68;100.00;101200.06;5007485;28;45384;-80
2023/01/11 07:31:33;;;;;;;;;1.25;0.00;;;;;10.64;100.00;101202.75;4974413;28;45382;-79
2023/01/11 07:33:58;;;;;;;;;0.00;0.00;;;;;10.61;100.00;101213.22;4975095;28;56400;-80
2023/01/11 07:36:23;;;;;;;;;2.00;1.00;;;;;10.59;100.00;101216.78;4977773;28;69550;-80
2023/01/11 07:38:49;;;;;;;;;1.00;0.25;;;;;10.59;100.00;101219.38;5008837;28;64885;-80
2023/01/11 07:43:58;;;;;;;;;3.50;1.50;;;;;10.54;100.00;101235.06;4973458;28;45877;-80
2023/01/11 07:46:23;;;;;;;;;0.00;0.00;;;;;10.52;100.00;101243.81;4977928;28;45367;-81
2023/01/11 07:48:49;;;;;;;;;3.00;0.00;;;;;10.50;100.00;101254.25;4977653;28;45590;-81
2023/01/11 07:51:19;;;;;;;;;1.25;0.75;;;;;10.51;100.00;101257.69;4978416;28;45378;-80
2023/01/11 07:53:44;;;;;;;;;2.00;0.00;;;;;10.46;100.00;101266.47;4978360;28;46484;-79
2023/01/11 07:56:09;;;;;;;;;0.50;0.00;;;;;10.46;100.00;101276.88;4978088;28;45382;-80
2023/01/11 07:58:35;;;;;;;;;5.00;0.00;;;;;10.44;100.00;101280.41;4978661;28;45385;-81
2023/01/11 08:01:00;;;;;;;;;0.00;0.00;;;;;10.42;100.00;101288.25;4978030;28;45666;-81
2023/01/11 08:03:25;;;;;;;;;0.25;0.00;;;;;10.41;100.00;101289.13;4976861;28;45497;-81
2023/01/11 08:05:52;;;;;;;;;0.00;0.00;;;;;10.36;100.00;101287.50;4977152;28;45420;-81
2023/01/11 08:08:17;;;;;;;;;3.00;0.75;;;;;10.34;100.00;101299.69;4978320;28;45409;-81
2023/01/11 08:10:43;;;;;;;;;0.00;0.00;;;;;10.35;100.00;101317.03;4978187;28;45418;-81
2023/01/11 08:15:57;;;;;;;;;1.00;0.50;;;;;10.38;100.00;101315.22;4977255;28;45239;-81
2023/01/11 08:18:22;;;;;;;;;3.50;0.00;;;;;10.38;100.00;101315.22;4975973;28;45280;-81
2023/01/11 08:20:51;;;;;;;;;8.25;1.00;;;;;10.39;100.00;101327.31;4993429;28;45401;-81
2023/01/11 08:23:17;;;;;;;;;1.50;0.25;;;;;10.39;100.00;101335.13;4976961;28;47284;-81
2023/01/11 08:25:42;;;;;;;;;1.75;1.25;;;;;10.38;100.00;101336.03;4976893;28;45542;-81
2023/01/11 08:28:10;;;;;;;;;3.50;1.00;;;;;10.40;100.00;101338.59;4977361;28;45385;-81
2023/01/11 08:30:35;;;;;;;;;6.50;0.50;;;;;10.42;100.00;101336.84;4977749;28;45223;-81
2023/01/11 08:33:02;;;;;;;;;0.75;0.50;;;;;10.45;100.00;101350.63;4976693;28;46432;-81
2023/01/11 08:35:27;;;;;;;;;1.50;0.00;;;;;10.51;100.00;101360.09;4974164;28;47142;-81
2023/01/11 08:37:52;;;;;;;;;2.25;1.00;;;;;10.50;100.00;101360.13;4982109;28;47263;-80
2023/01/11 08:40:18;;;;;;;;;2.00;1.00;;;;;10.52;100.00;101363.56;4976866;28;45329;-82
2023/01/11 08:42:43;;;;;;;;;1.00;0.00;;;;;10.54;100.00;101369.59;5009148;28;46196;-81
2023/01/11 08:45:09;;;;;;;;;1.50;0.00;;;;;10.52;100.00;101368.75;4975317;28;63989;-80
2023/01/11 08:47:35;;;;;;;;;0.75;0.00;;;;;10.52;100.00;101374.81;4974368;28;45954;-82
2023/01/11 08:50:00;;;;;;;;;0.75;0.00;;;;;10.53;100.00;101376.53;4976094;28;45504;-80
2023/01/11 08:52:25;;;;;;;;;1.25;1.00;;;;;10.54;100.00;101375.63;4974776;28;45479;-82
2023/01/11 08:54:51;;;;;;;;;1.00;0.00;;;;;10.56;100.00;101381.66;4975575;28;59313;-80
2023/01/11 08:57:16;;;;;;;;;5.25;1.50;;;;;10.59;100.00;101384.22;4977368;28;45420;-81
2023/01/11 08:59:42;;;;;;;;;1.75;0.50;;;;;10.64;100.00;101384.13;4975675;28;45533;-80
2023/01/11 09:02:08;;;;;;;;;2.00;1.00;;;;;10.64;100.00;101389.34;4976795;28;52856;-80
2023/01/11 09:04:33;;;;;;;;;2.00;1.00;;;;;10.63;100.00;101398.91;4975362;28;45682;-81
2023/01/11 09:07:00;;;;;;;;;2.00;0.75;;;;;10.65;100.00;101396.28;4977091;28;45398;-81
2023/01/11 09:09:25;;;;;;;;;1.00;1.00;;;;;10.69;100.00;101394.47;4976430;28;45362;-80
2023/01/11 09:11:53;;;;;;;;;1.25;1.00;;;;;10.72;100.00;101403.09;5007769;28;63081;-80
2023/01/11 09:14:24;;;;;;;;;1.00;1.00;;;;;10.76;100.00;101407.34;4975200;28;45627;-81
2023/01/11 09:16:50;;;;;;;;;4.50;0.00;;;;;10.78;100.00;101413.38;4975779;28;45331;-81
2023/01/11 09:19:15;;;;;;;;;1.00;1.00;;;;;10.77;100.00;101406.47;4976830;28;45311;-81
2023/01/11 09:21:41;;;;;;;;;4.50;1.00;;;;;10.74;100.00;101416.09;4975505;28;45367;-80
2023/01/11 09:24:06;;;;;;;;;1.75;0.25;;;;;10.76;100.00;101424.72;4974908;28;45499;-81
2023/01/11 09:26:32;;;;;;;;;2.50;1.00;;;;;10.78;100.00;101433.34;4976625;28;45224;-82
2023/01/11 09:28:57;;;;;;;;;2.00;1.00;;;;;10.78;100.00;101431.59;4976494;28;45485;-81
2023/01/11 09:31:22;;;;;;;;;2.00;1.00;;;;;10.75;100.00;101439.47;4976138;28;53425;-81
2023/01/11 09:33:48;;;;;;;;;0.00;0.00;;;;;10.74;100.00;101435.16;4976173;28;45314;-81
2023/01/11 09:36:13;;;;;;;;;1.75;1.25;;;;;10.67;100.00;101433.53;4974247;28;63914;-81
2023/01/11 09:38:40;;;;;;;;;3.50;0.50;;;;;10.65;100.00;101446.59;4975875;28;45652;-80
2023/01/11 09:41:28;;;;;;;;;6.50;2.00;;;;;10.62;100.00;101444.06;4995684;28;45952;-82
2023/01/11 09:44:13;;;;;;;;;1.00;1.00;;;;;10.56;100.00;101445.91;4987531;28;45437;-82
2023/01/11 09:46:41;;;;;;;;;1.25;0.25;;;;;10.53;100.00;101452.03;4969469;28;45433;-82
2023/01/11 09:49:14;;;;;;;;;1.25;0.00;;;;;10.46;100.00;101447.81;4980862;28;45433;-82
2023/01/11 09:51:40;;;;;;;;;7.25;1.00;;;;;10.43;100.00;101458.25;4983071;28;46307;-82
2023/01/11 09:54:09;;;;;;;;;1.75;1.00;;;;;10.42;100.00;101462.63;4973457;28;45441;-83
2023/01/11 09:56:44;;;;;;;;;2.75;0.25;;;;;10.39;100.00;101470.47;4976222;28;45404;-82
2023/01/11 09:59:25;;;;;;;;;4.25;0.50;;;;;10.36;100.00;101470.50;4973339;28;45521;-82
2023/01/11 10:02:16;;;;;;;;;1.50;0.25;;;;;10.38;100.00;101476.56;4971936;28;45386;-82
2023/01/11 10:04:50;;;;;;;;;3.75;2.00;;;;;10.37;100.00;101487.84;4962345;28;45329;-82
2023/01/11 10:07:19;;;;;;;;;2.00;1.00;;;;;10.35;100.00;101488.78;4966187;28;45560;-81
2023/01/11 10:10:08;;;;;;;;;0.75;0.75;;;;;10.35;100.00;101484.41;4970861;28;45381;-83
2023/01/11 10:12:58;;;;;;;;;1.25;0.75;;;;;10.36;100.00;101482.66;4973621;28;45436;-82
2023/01/11 10:15:53;;;;;;;;;1.00;1.00;;;;;10.35;100.00;101494.81;4973169;28;45863;-83
2023/01/11 10:18:37;;;;;;;;;0.00;0.00;;;;;10.37;100.00;101494.81;4975077;28;45502;-81
2023/01/11 10:21:26;;;;;;;;;2.25;1.00;;;;;10.38;100.00;101488.72;4974646;28;45374;-81
2023/01/11 10:23:58;;;;;;;;;6.50;1.00;;;;;10.39;100.00;101483.47;5005314;28;46465;-81
2023/01/11 10:26:27;;;;;;;;;1.00;0.50;;;;;10.40;100.00;101485.22;4974654;28;45720;-81
2023/01/11 10:34:48;;;;;;;;;2.00;0.00;;;;;10.44;100.00;101491.22;4973891;28;45426;-81
2023/01/11 10:37:45;;;;;;;;;0.00;0.00;;;;;10.47;100.00;101493.75;4974460;28;45598;-82
2023/01/11 10:43:21;;;;;;;;;2.00;0.00;;;;;10.58;100.00;101504.84;4974462;28;45482;-82
2023/01/11 10:46:08;;;;;;;;;2.00;0.25;;;;;10.68;100.00;101502.09;4974387;28;46574;-81
2023/01/11 10:48:37;;;;;;;;;0.50;0.00;;;;;10.74;100.00;101492.44;4959813;28;45458;-81
2023/01/11 10:51:28;;;;;;;;;3.50;0.00;;;;;10.84;100.00;101498.34;4975174;28;45382;-82
2023/01/11 10:54:03;;;;;;;;;0.00;0.00;;;;;10.92;100.00;101504.28;5007051;28;45545;-81
2023/01/11 10:56:40;;;;;;;;;0.00;0.00;;;;;11.02;100.00;101504.97;4974272;28;46338;-82
2023/01/11 10:59:15;;;;;;;;;1.25;0.00;;;;;11.14;100.00;101507.34;4972888;28;45760;-82
2023/01/11 11:01:59;;;;;;;;;0.25;0.00;;;;;11.32;100.00;101519.16;4975661;28;45465;-82
2023/01/11 11:07:51;;;;;;;;;3.25;0.00;;;;;11.71;100.00;101527.06;4974405;28;45843;-83
2023/01/11 11:10:20;;;;;;;;;1.00;1.00;;;;;12.31;100.00;101523.16;5008915;28;45339;-83
2023/01/11 11:13:21;;;;;;;;;2.50;0.25;;;;;13.17;100.00;101526.19;4993175;28;45576;-82
2023/01/11 11:16:11;;;;;;;;;0.25;0.00;;;;;13.60;100.00;101528.56;4932886;28;45542;-82
2023/01/11 11:18:36;;;;;;;;;1.00;1.00;;;;;14.26;100.00;101521.31;4923209;28;46537;-82
2023/01/11 11:21:05;;;;;;;;;0.00;0.00;;;;;15.26;100.00;101526.69;4936635;28;68401;-83
2023/01/11 11:23:31;;;;;;;;;4.00;0.00;;;;;16.14;100.00;101531.31;4937518;28;45422;-83
2023/01/11 11:26:00;;;;;;;;;1.00;1.00;;;;;16.89;100.00;101551.03;4937506;28;45399;-83
2023/01/11 11:28:29;;;;;;;;;0.75;0.00;;;;;16.69;100.00;101543.09;4922012;28;46098;-84
2023/01/11 11:31:02;;;;;;;;;0.00;0.00;;;;;16.68;100.00;101536.13;4937366;28;45583;-84
2023/01/11 11:33:36;;;;;;;;;3.50;0.00;;;;;16.61;100.00;101552.16;4937058;28;45463;-84
2023/01/11 11:36:03;;;;;;;;;0.25;0.00;;;;;17.12;100.00;101549.19;4937098;28;45567;-83
2023/01/11 11:38:31;;;;;;;;;2.75;0.00;;;;;17.21;100.00;101548.78;4937338;28;47312;-84
2023/01/11 11:40:58;;;;;;;;;1.00;1.00;;;;;17.26;100.00;101543.34;4937106;28;45614;-83
2023/01/11 11:43:25;;;;;;;;;0.75;0.50;;;;;17.28;100.00;101547.59;4936923;28;45413;-83
2023/01/11 11:45:53;;;;;;;;;1.00;1.00;;;;;17.43;100.00;101548.69;4937273;28;45457;-84
2023/01/11 11:48:19;;;;;;;;;2.00;0.50;;;;;17.67;100.00;101548.53;4936582;28;45410;-83
2023/01/11 11:50:45;;;;;;;;;2.50;1.00;;;;;17.06;100.00;101552.94;4937053;28;45481;-84
2023/01/11 11:53:25;;;;;;;;;1.00;1.00;;;;;16.90;100.00;101550.13;4964559;28;45372;-83
2023/01/11 11:55:51;;;;;;;;;1.25;0.75;;;;;17.66;100.00;101565.22;4979800;28;44877;-86
2023/01/11 11:58:19;;;;;;;;;3.25;0.00;;;;;18.64;100.00;101573.78;4976269;28;46565;-83
2023/01/11 12:00:49;;;;;;;;;0.00;0.00;;;;;19.24;100.00;101554.06;4976079;28;45339;-84
2023/01/11 12:03:29;;;;;;;;;0.00;0.00;;;;;19.13;100.00;101565.22;4976090;28;45448;-86
2023/01/11 12:06:02;;;;;;;;;0.25;0.25;;;;;19.31;100.00;101564.22;4976837;28;45361;-88
2023/01/11 12:08:30;;;;;;;;;1.75;0.00;;;;;19.39;99.24;101573.53;4976507;28;46421;-85